My Meet Scores
Hope Kaczmarek, Elite Sports Complex Inc. - MyMeetScores.com
Top100 | Top Teams | Upcoming Meets | Completed Meets | Latest | Add Scores | Help| Support | Bookmark and Share

Hope Kaczmarek, Elite Sports Complex Inc.
Personal Bests
LevelVault BarsBeamFloorAA
XG9.3009.850 9.2009.35036.200
XS8.9509.675 9.3509.47536.925
Scores on America's Top 100as of 09.22.2020
Year Level Vault Bars Beam Floor AA
2020 XG9.850

Click here to view our exclusive Top 100 Collection
Meet Scores
Date Meet Team Session Level Division Vault Bars Beam Floor AA
2020-02-21 Kinetic Classic Elite Sports Complex Inc. 10 XG Middle 9.300 29T 9.850 4T 7.700 73 9.125 51T 35.975 50
2020-01-24 King Arthur Invitational Elite Sports Complex Inc. 11 XG SR A 8.350 11 9.175 8 8.725 6 8.750 10 35.000 8
2020-01-10 Leenda's Island Adventure Elite Sports Complex Inc. GG8 XG 12 Year Ol 8.375 14 9.400 7 6.550 22 8.600 15T 32.925 19
2019-12-13 2019 St Nick Elite Sports Complex Inc. 7B XG SrA 8.650 12 9.200 4 8.350 15 9.075 11T 35.275 9T
2019-05-03 2019 Region 5 Xcel Championships Elite Sports Complex Inc. 08O XG CH F 8.475 37 9.300 12T 9.200 22T 8.750 37 35.725 33
2019-04-05 2019 Illinois XG, XP, XD State Championships Elite Sports Complex Inc. 5 XG Jr A 8.750 23 9.775 1 8.450 22 9.200 12T 36.175 13
2019-02-08 Midwest Twisters Harley Meet Womens Elite Sports Complex Inc. S03 XG 11 yrs. 8.550 8T 9.100 6 7.875 13 8.900 12 34.425 11T
2019-01-25 King Arthur Invitational Elite Sports Complex Inc. 18 XG JR 8.850 11 9.625 3T 8.375 10 9.350 5 36.200 7
2019-01-04 Leenda's Island Adventure Elite Sports Complex Inc. P07 XG 11 Year Ol 8.400 20 9.650 4 8.250 21 7.900 27 34.200 20T
2018-12-07 St. Nick Invite 2018 Elite Sports Complex Inc. 4 XG JrB 8.700 12 9.450 1 8.725 8 8.925 7T 35.800 4
2018-04-26 Xcel Region 5 Championships Elite Sports Complex Inc. 7B XS Jr A 8.625 25 9.400 15 9.050 19 9.100 22 36.175 23
2018-04-06 XCEL State Championships Elite Sports Complex Inc. 3A XS Jr A 8.950 15 9.350 8T 9.275 8T 9.350 12T 36.925 8
2018-03-09 Lucky Invitational Elite Sports Complex Inc. B09 XS Jr B 8.800 8T 9.675 4T 9.100 14T 8.900 15T 36.475 10T
2018-02-23 Kinetic Classic Elite Sports Complex Inc. 8 XS Younger 8.700 45T 9.075 36T 9.050 40 9.475 9 36.300 30T
2017-12-08 St. Nick Invite Elite Sports Complex Inc. 6B XS JrB 8.950 3T 9.225 3 9.150 5 9.200 4 36.525 3
2017-05-11 2017 Region 5 Xcel Championships Elite Sports Complex Inc. 4B XS Ch D 8.950 19 9.100 25 9.000 23T 9.300 10 36.350 21
2017-04-21 2017 Illinois Xcel State Championships Elite Sports Complex Inc. 5 XS Ch C 8.700 13 9.150 22 8.925 17 9.050 14T 35.825 16
2017-03-10 Lucky Invitational Elite Sports Complex Inc. B06 XS Jr A 8.900 7T 9.300 12T 9.200 9 8.775 11 36.175 6
2017-02-24 Kinetic Classic Elite Sports Complex Inc. 8 XS All Ages 8.450 42T 9.150 43T 9.350 31 8.775 42T 35.725 41
2017-02-09 Hal's Harley-Davidson Invite Elite Sports Complex Inc. S09 XS 9 under 8.500 17T 9.025 14T 8.850 15 9.050 14 35.425 17
2017-01-05 Leenda's Island Adventure Elite Sports Complex Inc. G10 XS 9 and Unde 8.250 8 9.075 5 8.325 9 8.800 8 34.450 8
Get your scores on
a t-shirt, pin, or hoodie

www.lazysuits.com